Time,TemperatureF,DewpointF,PressureIn,WindDirection,WindDirectionDegrees,WindSpeedMPH,WindSpeedGustMPH,Humidity,HourlyPrecipIn,Conditions,Clouds,dailyrainin,SoftwareType,DateUTC
2013-07-01 00:01:00,62.5,53.7,30.01,North,5,0.0,0.0,73,0.00,,---,0.00,VWS V14.01,2013-07-01 04:01:00,
2013-07-01 00:02:00,62.5,54.1,30.01,North,5,0.0,1.0,74,0.00,,---,0.00,VWS V14.01,2013-07-01 04:02:00,
2013-07-01 00:07:00,62.9,54.1,30.01,North,9,0.0,3.0,73,0.00,,---,0.00,VWS V14.01,2013-07-01 04:07:00,
2013-07-01 00:12:00,63.3,53.8,30.01,NNE,13,0.0,1.0,71,0.00,,---,0.00,VWS V14.01,2013-07-01 04:12:00,
2013-07-01 00:17:00,63.8,53.0,30.01,NNE,13,1.0,4.0,68,0.00,,---,0.00,VWS V14.01,2013-07-01 04:17:00,
2013-07-01 00:22:00,64.0,52.4,30.01,NNE,16,0.0,1.0,66,0.00,,---,0.00,VWS V14.01,2013-07-01 04:22:00,
2013-07-01 00:28:00,64.0,51.6,30.01,North,5,0.0,2.0,64,0.00,,---,0.00,VWS V14.01,2013-07-01 04:28:00,
2013-07-01 00:33:00,64.0,51.6,30.01,North,5,0.0,3.0,64,0.00,,---,0.00,VWS V14.01,2013-07-01 04:33:00,
2013-07-01 00:37:00,64.0,51.2,30.01,North,9,1.0,3.0,63,0.00,,---,0.00,VWS V14.01,2013-07-01 04:37:00,
2013-07-01 00:42:00,64.1,51.7,30.01,NNE,13,1.0,1.0,64,0.00,,---,0.00,VWS V14.01,2013-07-01 04:42:00,
2013-07-01 00:47:00,63.8,51.4,30.01,North,10,0.0,2.0,64,0.00,,---,0.00,VWS V14.01,2013-07-01 04:47:00,
2013-07-01 00:52:00,63.4,51.9,30.01,North,10,0.0,2.0,66,0.00,,---,0.00,VWS V14.01,2013-07-01 04:52:00,
2013-07-01 00:58:00,63.2,50.8,30.01,NNE,18,1.0,3.0,64,0.00,,---,0.00,VWS V14.01,2013-07-01 04:58:00,
2013-07-01 01:03:00,63.2,50.4,30.01,North,360,2.0,4.0,63,0.00,,---,0.00,VWS V14.01,2013-07-01 05:03:00,
2013-07-01 01:08:00,63.0,50.2,30.01,NNW,338,0.0,2.0,63,0.00,,---,0.00,VWS V14.01,2013-07-01 05:08:00,
2013-07-01 01:13:00,62.9,49.7,30.01,North,355,0.0,4.0,62,0.00,,---,0.00,VWS V14.01,2013-07-01 05:13:00,
2013-07-01 01:18:00,62.8,49.6,30.01,North,5,2.0,5.0,62,0.00,,---,0.00,VWS V14.01,2013-07-01 05:18:00,
2013-07-01 01:23:00,62.4,49.7,30.01,NNE,15,2.0,6.0,63,0.00,,---,0.00,VWS V14.01,2013-07-01 05:23:00,
2013-07-01 01:28:00,62.2,49.9,30.02,NNE,13,4.0,4.0,64,0.00,,---,0.00,VWS V14.01,2013-07-01 05:28:00,
2013-07-01 01:33:00,61.8,49.5,30.01,NNE,15,2.0,2.0,64,0.00,,---,0.00,VWS V14.01,2013-07-01 05:33:00,
2013-07-01 01:38:00,61.7,49.8,30.01,North,360,2.0,2.0,65,0.00,,---,0.00,VWS V14.01,2013-07-01 05:38:00,
2013-07-01 01:43:00,61.7,50.2,30.01,North,5,0.0,1.0,66,0.00,,---,0.00,VWS V14.01,2013-07-01 05:43:00,
2013-07-01 01:48:00,61.7,50.2,30.01,North,5,2.0,2.0,66,0.00,,---,0.00,VWS V14.01,2013-07-01 05:48:00,
2013-07-01 01:53:00,61.2,50.2,30.02,North,5,0.0,4.0,67,0.00,,---,0.00,VWS V14.01,2013-07-01 05:53:00,
2013-07-01 01:58:00,60.8,50.2,30.02,North,9,2.0,3.0,68,0.00,,---,0.00,VWS V14.01,2013-07-01 05:58:00,
2013-07-01 02:03:00,60.7,50.1,30.01,North,10,0.0,0.0,68,0.00,,---,0.00,VWS V14.01,2013-07-01 06:03:00,
2013-07-01 02:08:00,61.1,50.1,30.02,NNE,13,0.0,1.0,67,0.00,,---,0.00,VWS V14.01,2013-07-01 06:08:00,
2013-07-01 02:13:00,61.3,49.9,30.02,NNE,15,1.0,2.0,66,0.00,,---,0.00,VWS V14.01,2013-07-01 06:13:00,
2013-07-01 02:18:00,61.3,49.9,30.02,NNE,12,0.0,1.0,66,0.00,,---,0.00,VWS V14.01,2013-07-01 06:18:00,
2013-07-01 02:23:00,61.2,49.8,30.02,NNW,342,0.0,4.0,66,0.00,,---,0.00,VWS V14.01,2013-07-01 06:23:00,
2013-07-01 02:28:00,61.2,49.8,30.02,North,360,0.0,2.0,66,0.00,,---,0.00,VWS V14.01,2013-07-01 06:28:00,
2013-07-01 02:33:00,61.1,49.7,30.02,NNE,25,0.0,4.0,66,0.00,,---,0.00,VWS V14.01,2013-07-01 06:33:00,
2013-07-01 02:38:00,61.1,49.3,30.02,NNE,23,1.0,2.0,65,0.00,,---,0.00,VWS V14.01,2013-07-01 06:38:00,
2013-07-01 02:43:00,60.9,49.5,30.02,North,5,0.0,2.0,66,0.00,,---,0.00,VWS V14.01,2013-07-01 06:43:00,
2013-07-01 02:48:00,60.7,49.7,30.02,NNW,345,0.0,2.0,67,0.00,,---,0.00,VWS V14.01,2013-07-01 06:48:00,
2013-07-01 02:53:00,60.5,49.5,30.02,NNE,14,0.0,1.0,67,0.00,,---,0.00,VWS V14.01,2013-07-01 06:53:00,
2013-07-01 02:58:00,60.5,49.5,30.02,NNW,348,0.0,1.0,67,0.00,,---,0.00,VWS V14.01,2013-07-01 06:58:00,
2013-07-01 03:03:00,60.5,49.5,30.02,North,350,0.0,2.0,67,0.00,,---,0.00,VWS V14.01,2013-07-01 07:03:00,
2013-07-01 03:08:00,60.6,49.2,30.01,North,11,4.0,4.0,66,0.00,,---,0.00,VWS V14.01,2013-07-01 07:08:00,
2013-07-01 03:13:00,60.8,48.6,30.01,NNE,12,0.0,1.0,64,0.00,,---,0.00,VWS V14.01,2013-07-01 07:13:00,
2013-07-01 03:18:00,61.0,48.3,30.01,NNE,12,0.0,1.0,63,0.00,,---,0.00,VWS V14.01,2013-07-01 07:18:00,
2013-07-01 03:23:00,60.8,48.6,30.01,NNE,13,0.0,3.0,64,0.00,,---,0.00,VWS V14.01,2013-07-01 07:23:00,
2013-07-01 03:28:00,60.3,48.1,30.01,NNE,16,0.0,2.0,64,0.00,,---,0.00,VWS V14.01,2013-07-01 07:28:00,
2013-07-01 03:33:00,59.8,48.4,30.01,NNE,16,0.0,2.0,66,0.00,,---,0.00,VWS V14.01,2013-07-01 07:33:00,
2013-07-01 03:38:00,59.6,48.2,30.01,North,11,1.0,4.0,66,0.00,,---,0.00,VWS V14.01,2013-07-01 07:38:00,
2013-07-01 03:43:00,59.6,48.2,30.01,NNE,15,0.0,2.0,66,0.00,,---,0.00,VWS V14.01,2013-07-01 07:43:00,
2013-07-01 03:48:00,59.3,48.4,30.01,NNE,15,0.0,2.0,67,0.00,,---,0.00,VWS V14.01,2013-07-01 07:48:00,
2013-07-01 03:53:00,59.2,48.3,30.02,North,9,0.0,3.0,67,0.00,,---,0.00,VWS V14.01,2013-07-01 07:53:00,
2013-07-01 03:58:00,59.4,48.5,30.01,North,9,1.0,1.0,67,0.00,,---,0.00,VWS V14.01,2013-07-01 07:58:00,
2013-07-01 04:03:00,59.1,48.6,30.02,North,360,0.0,2.0,68,0.00,,---,0.00,VWS V14.01,2013-07-01 08:03:00,
2013-07-01 04:08:00,59.0,48.5,30.02,North,5,0.0,1.0,68,0.00,,---,0.00,VWS V14.01,2013-07-01 08:08:00,
2013-07-01 04:13:00,59.0,48.9,30.02,North,9,0.0,0.0,69,0.00,,---,0.00,VWS V14.01,2013-07-01 08:13:00,
2013-07-01 04:18:00,58.6,48.9,30.02,North,360,0.0,1.0,70,0.00,,---,0.00,VWS V14.01,2013-07-01 08:18:00,
2013-07-01 04:23:00,58.4,48.7,30.02,NNW,348,0.0,1.0,70,0.00,,---,0.00,VWS V14.01,2013-07-01 08:23:00,
2013-07-01 04:28:00,58.4,49.0,30.02,North,350,0.0,1.0,71,0.00,,---,0.00,VWS V14.01,2013-07-01 08:28:00,
2013-07-01 04:33:00,59.0,49.6,30.02,North,351,0.0,0.0,71,0.00,,---,0.00,VWS V14.01,2013-07-01 08:33:00,
2013-07-01 04:38:00,59.0,49.6,30.02,North,355,2.0,2.0,71,0.00,,---,0.00,VWS V14.01,2013-07-01 08:38:00,
2013-07-01 04:44:00,59.2,49.8,30.03,North,355,0.0,2.0,71,0.00,,---,0.00,VWS V14.01,2013-07-01 08:44:00,
2013-07-01 04:49:00,59.3,49.9,30.03,North,355,0.0,1.0,71,0.00,,---,0.00,VWS V14.01,2013-07-01 08:49:00,
2013-07-01 04:53:00,59.0,50.0,30.03,North,351,0.0,0.0,72,0.00,,---,0.00,VWS V14.01,2013-07-01 08:53:00,
2013-07-01 04:59:00,59.0,50.4,30.03,North,355,0.0,0.0,73,0.00,,---,0.00,VWS V14.01,2013-07-01 08:59:00,
2013-07-01 05:04:00,59.0,50.7,30.03,North,360,0.0,0.0,74,0.00,,---,0.00,VWS V14.01,2013-07-01 09:04:00,
2013-07-01 05:09:00,59.0,50.7,30.03,North,360,0.0,0.0,74,0.00,,---,0.00,VWS V14.01,2013-07-01 09:09:00,
2013-07-01 05:14:00,59.0,50.7,30.03,North,360,0.0,0.0,74,0.00,,---,0.00,VWS V14.01,2013-07-01 09:14:00,
2013-07-01 05:19:00,58.4,49.8,30.03,North,360,0.0,0.0,73,0.00,,---,0.00,VWS V14.01,2013-07-01 09:19:00,
2013-07-01 05:24:00,58.0,50.1,30.03,North,360,0.0,0.0,75,0.00,,---,0.00,VWS V14.01,2013-07-01 09:24:00,
2013-07-01 05:29:00,57.7,50.2,30.04,North,360,0.0,0.0,76,0.00,,---,0.00,VWS V14.01,2013-07-01 09:29:00,
2013-07-01 05:34:00,57.6,50.1,30.04,North,360,0.0,1.0,76,0.00,,---,0.00,VWS V14.01,2013-07-01 09:34:00,
2013-07-01 05:39:00,57.7,50.2,30.04,North,360,1.0,2.0,76,0.00,,---,0.00,VWS V14.01,2013-07-01 09:39:00,
2013-07-01 05:44:00,57.5,50.4,30.05,North,360,0.0,1.0,77,0.00,,---,0.00,VWS V14.01,2013-07-01 09:44:00,
2013-07-01 05:49:00,57.4,50.3,30.05,North,360,1.0,3.0,77,0.00,,---,0.00,VWS V14.01,2013-07-01 09:49:00,
2013-07-01 05:54:00,57.5,50.7,30.05,North,5,1.0,2.0,78,0.00,,---,0.00,VWS V14.01,2013-07-01 09:54:00,
2013-07-01 05:59:00,57.7,51.2,30.05,NNE,24,1.0,2.0,79,0.00,,---,0.00,VWS V14.01,2013-07-01 09:59:00,
2013-07-01 06:04:00,57.9,51.8,30.05,NNE,30,3.0,3.0,80,0.00,,---,0.00,VWS V14.01,2013-07-01 10:04:00,
2013-07-01 06:09:00,58.1,51.3,30.05,NE,48,4.0,4.0,78,0.00,,---,0.00,VWS V14.01,2013-07-01 10:09:00,
2013-07-01 06:14:00,58.5,51.0,30.05,NE,48,3.0,4.0,76,0.00,,---,0.00,VWS V14.01,2013-07-01 10:14:00,
2013-07-01 06:19:00,59.0,50.7,30.06,NE,48,2.0,3.0,74,0.00,,---,0.00,VWS V14.01,2013-07-01 10:19:00,
2013-07-01 06:24:00,59.0,50.7,30.06,NE,48,2.0,4.0,74,0.00,,---,0.00,VWS V14.01,2013-07-01 10:24:00,
2013-07-01 06:29:00,59.0,50.7,30.06,NE,48,3.0,3.0,74,0.00,,---,0.00,VWS V14.01,2013-07-01 10:29:00,
2013-07-01 06:34:00,59.0,51.5,30.06,NE,48,2.0,3.0,76,0.00,,---,0.00,VWS V14.01,2013-07-01 10:34:00,
2013-07-01 06:39:00,59.0,51.5,30.06,ENE,64,5.0,5.0,76,0.00,,---,0.00,VWS V14.01,2013-07-01 10:39:00,
2013-07-01 06:44:00,59.0,51.1,30.06,ENE,68,4.0,6.0,75,0.00,,---,0.00,VWS V14.01,2013-07-01 10:44:00,
2013-07-01 06:49:00,59.3,51.4,30.06,ENE,76,3.0,6.0,75,0.00,,---,0.00,VWS V14.01,2013-07-01 10:49:00,
2013-07-01 06:54:00,59.1,50.8,30.06,ENE,75,5.0,7.0,74,0.00,,---,0.00,VWS V14.01,2013-07-01 10:54:00,
2013-07-01 06:59:00,59.1,50.5,30.07,ENE,65,5.0,7.0,73,0.00,,---,0.00,VWS V14.01,2013-07-01 10:59:00,
2013-07-01 07:04:00,59.2,50.6,30.06,ENE,72,4.0,7.0,73,0.00,,---,0.00,VWS V14.01,2013-07-01 11:04:00,
2013-07-01 07:09:00,59.5,50.8,30.07,ENE,69,5.0,6.0,73,0.00,,---,0.00,VWS V14.01,2013-07-01 11:09:00,
2013-07-01 07:14:00,59.7,51.0,30.07,ENE,60,6.0,8.0,73,0.00,,---,0.00,VWS V14.01,2013-07-01 11:14:00,
2013-07-01 07:19:00,59.9,51.2,30.07,ENE,77,5.0,9.0,73,0.00,,---,0.00,VWS V14.01,2013-07-01 11:19:00,
2013-07-01 07:24:00,60.0,51.3,30.07,ENE,64,9.0,10.0,73,0.00,,---,0.00,VWS V14.01,2013-07-01 11:24:00,
2013-07-01 07:29:00,60.2,51.2,30.07,ENE,74,11.0,12.0,72,0.00,,---,0.00,VWS V14.01,2013-07-01 11:29:00,
2013-07-01 07:34:00,60.5,51.4,30.07,ENE,77,8.0,11.0,72,0.00,,---,0.00,VWS V14.01,2013-07-01 11:34:00,
2013-07-01 07:39:00,60.7,51.6,30.07,ENE,68,8.0,11.0,72,0.00,,---,0.00,VWS V14.01,2013-07-01 11:39:00,
2013-07-01 07:44:00,60.9,51.5,30.07,ENE,77,7.0,10.0,71,0.00,,---,0.00,VWS V14.01,2013-07-01 11:44:00,
2013-07-01 07:49:00,61.2,51.7,30.07,ENE,74,6.0,9.0,71,0.00,,---,0.00,VWS V14.01,2013-07-01 11:49:00,
2013-07-01 07:54:00,61.5,52.4,30.07,East,87,5.0,9.0,72,0.00,,---,0.00,VWS V14.01,2013-07-01 11:54:00,
2013-07-01 07:59:00,61.9,52.8,30.07,ENE,75,5.0,10.0,72,0.00,,---,0.00,VWS V14.01,2013-07-01 11:59:00,
2013-07-01 08:04:00,62.1,53.0,30.07,ENE,65,6.0,11.0,72,0.00,,---,0.00,VWS V14.01,2013-07-01 12:04:00,
2013-07-01 08:09:00,62.5,53.4,30.07,ENE,61,10.0,11.0,72,0.00,,---,0.00,VWS V14.01,2013-07-01 12:09:00,
2013-07-01 08:14:00,62.9,54.1,30.07,ENE,77,10.0,12.0,73,0.00,,---,0.00,VWS V14.01,2013-07-01 12:14:00,
2013-07-01 08:19:00,63.4,53.8,30.07,ENE,71,7.0,12.0,71,0.00,,---,0.00,VWS V14.01,2013-07-01 12:19:00,
2013-07-01 08:24:00,64.0,54.0,30.07,East,94,7.0,13.0,70,0.00,,---,0.00,VWS V14.01,2013-07-01 12:24:00,
2013-07-01 08:29:00,64.5,54.1,30.07,East,82,14.0,18.0,69,0.00,,---,0.00,VWS V14.01,2013-07-01 12:29:00,
2013-07-01 08:34:00,64.7,54.3,30.07,ENE,74,13.0,15.0,69,0.00,,---,0.00,VWS V14.01,2013-07-01 12:34:00,
2013-07-01 08:40:00,65.2,54.4,30.07,East,80,10.0,14.0,68,0.00,,---,0.00,VWS V14.01,2013-07-01 12:40:00,
2013-07-01 08:45:00,65.4,54.6,30.07,East,87,14.0,14.0,68,0.00,,---,0.00,VWS V14.01,2013-07-01 12:45:00,
2013-07-01 08:50:00,65.5,54.3,30.08,ENE,78,9.0,18.0,67,0.00,,---,0.00,VWS V14.01,2013-07-01 12:50:00,
2013-07-01 08:55:00,65.6,54.4,30.08,East,87,7.0,14.0,67,0.00,,---,0.00,VWS V14.01,2013-07-01 12:55:00,
2013-07-01 09:00:00,65.8,54.5,30.08,East,83,11.0,15.0,67,0.00,,---,0.00,VWS V14.01,2013-07-01 13:00:00,
2013-07-01 09:05:00,65.9,54.7,30.08,East,84,11.0,16.0,67,0.00,,---,0.00,VWS V14.01,2013-07-01 13:05:00,
2013-07-01 09:10:00,66.3,54.6,30.08,East,88,11.0,14.0,66,0.00,,---,0.00,VWS V14.01,2013-07-01 13:10:00,
2013-07-01 09:15:00,66.6,54.9,30.09,ENE,78,13.0,16.0,66,0.00,,---,0.00,VWS V14.01,2013-07-01 13:15:00,
2013-07-01 09:20:00,66.8,54.7,30.09,East,92,13.0,18.0,65,0.00,,---,0.00,VWS V14.01,2013-07-01 13:20:00,
2013-07-01 09:25:00,66.9,54.8,30.09,ENE,69,16.0,18.0,65,0.00,,---,0.00,VWS V14.01,2013-07-01 13:25:00,
2013-07-01 09:30:00,66.8,55.1,30.09,East,82,12.0,17.0,66,0.00,,---,0.00,VWS V14.01,2013-07-01 13:30:00,
2013-07-01 09:35:00,67.1,55.0,30.09,ENE,75,13.0,19.0,65,0.00,,---,0.00,VWS V14.01,2013-07-01 13:35:00,
2013-07-01 09:40:00,67.3,55.2,30.09,ENE,73,15.0,19.0,65,0.00,,---,0.00,VWS V14.01,2013-07-01 13:40:00,
2013-07-01 09:45:00,67.5,55.3,30.09,East,96,12.0,16.0,65,0.00,,---,0.00,VWS V14.01,2013-07-01 13:45:00,
2013-07-01 09:50:00,67.7,55.1,30.09,East,93,11.0,16.0,64,0.00,,---,0.00,VWS V14.01,2013-07-01 13:50:00,
2013-07-01 09:55:00,68.0,55.8,30.09,ENE,66,12.0,15.0,65,0.00,,---,0.00,VWS V14.01,2013-07-01 13:55:00,
2013-07-01 10:00:00,68.0,55.4,30.09,ENE,70,13.0,17.0,64,0.00,,---,0.00,VWS V14.01,2013-07-01 14:00:00,
2013-07-01 10:05:00,68.0,55.4,30.09,ENE,59,11.0,15.0,64,0.00,,---,0.00,VWS V14.01,2013-07-01 14:05:00,
2013-07-01 10:10:00,68.6,55.5,30.09,ENE,71,15.0,15.0,63,0.00,,---,0.00,VWS V14.01,2013-07-01 14:10:00,
2013-07-01 10:15:00,68.1,55.5,30.09,ENE,61,9.0,9.0,64,0.00,,---,0.00,VWS V14.01,2013-07-01 14:15:00,
2013-07-01 10:20:00,67.9,55.3,30.09,ESE,109,11.0,15.0,64,0.00,,---,0.00,VWS V14.01,2013-07-01 14:20:00,
2013-07-01 10:25:00,68.1,55.5,30.09,East,94,9.0,9.0,64,0.00,,---,0.00,VWS V14.01,2013-07-01 14:25:00,
2013-07-01 10:30:00,68.2,55.6,30.09,East,92,4.0,13.0,64,0.00,,---,0.00,VWS V14.01,2013-07-01 14:30:00,
2013-07-01 10:35:00,68.8,55.7,30.09,East,98,7.0,7.0,63,0.00,,---,0.00,VWS V14.01,2013-07-01 14:35:00,
2013-07-01 10:40:00,69.8,56.2,30.09,ENE,76,5.0,5.0,62,0.00,,---,0.00,VWS V14.01,2013-07-01 14:40:00,
2013-07-01 10:45:00,70.0,56.4,30.09,ENE,70,6.0,6.0,62,0.00,,---,0.00,VWS V14.01,2013-07-01 14:45:00,
2013-07-01 10:50:00,69.4,55.8,30.09,ENE,61,9.0,11.0,62,0.00,,---,0.00,VWS V14.01,2013-07-01 14:50:00,
2013-07-01 10:55:00,69.4,55.8,30.09,ENE,60,13.0,14.0,62,0.00,,---,0.00,VWS V14.01,2013-07-01 14:55:00,
2013-07-01 11:00:00,69.5,56.4,30.09,ENE,62,10.0,11.0,63,0.00,,---,0.00,VWS V14.01,2013-07-01 15:00:00,
2013-07-01 11:05:00,69.5,55.9,30.09,ENE,67,7.0,7.0,62,0.00,,---,0.00,VWS V14.01,2013-07-01 15:05:00,
2013-07-01 11:10:00,69.9,56.3,30.09,NE,54,9.0,11.0,62,0.00,,---,0.00,VWS V14.01,2013-07-01 15:10:00,
2013-07-01 11:15:00,70.2,56.6,30.09,NE,56,6.0,12.0,62,0.00,,---,0.00,VWS V14.01,2013-07-01 15:15:00,
2013-07-01 11:20:00,70.6,56.1,30.09,ENE,73,7.0,7.0,60,0.00,,---,0.00,VWS V14.01,2013-07-01 15:20:00,
2013-07-01 11:25:00,71.1,57.4,30.09,ENE,69,7.0,9.0,62,0.00,,---,0.00,VWS V14.01,2013-07-01 15:25:00,
2013-07-01 11:30:00,71.3,56.7,30.09,East,86,10.0,12.0,60,0.00,,---,0.00,VWS V14.01,2013-07-01 15:30:00,
2013-07-01 11:35:00,71.3,57.2,30.09,ENE,67,12.0,12.0,61,0.00,,---,0.00,VWS V14.01,2013-07-01 15:35:00,
2013-07-01 11:40:00,71.5,56.9,30.09,East,83,6.0,10.0,60,0.00,,---,0.00,VWS V14.01,2013-07-01 15:40:00,
2013-07-01 11:45:00,71.8,57.6,30.08,East,89,4.0,7.0,61,0.00,,---,0.00,VWS V14.01,2013-07-01 15:45:00,
2013-07-01 11:50:00,71.9,56.8,30.08,ENE,70,8.0,10.0,59,0.00,,---,0.00,VWS V14.01,2013-07-01 15:50:00,
2013-07-01 11:55:00,72.4,56.8,30.08,East,86,2.0,6.0,58,0.00,,---,0.00,VWS V14.01,2013-07-01 15:55:00,
2013-07-01 12:00:00,72.9,57.3,30.08,ENE,72,10.0,11.0,58,0.00,,---,0.00,VWS V14.01,2013-07-01 16:00:00,
2013-07-01 12:05:00,72.9,56.8,30.08,ESE,105,11.0,12.0,57,0.00,,---,0.00,VWS V14.01,2013-07-01 16:05:00,
2013-07-01 12:11:00,72.8,57.7,30.08,East,80,6.0,11.0,59,0.00,,---,0.00,VWS V14.01,2013-07-01 16:11:00,
2013-07-01 12:16:00,73.2,57.1,30.08,East,90,10.0,12.0,57,0.00,,---,0.00,VWS V14.01,2013-07-01 16:16:00,
2013-07-01 12:21:00,73.3,56.7,30.08,East,86,11.0,11.0,56,0.00,,---,0.00,VWS V14.01,2013-07-01 16:21:00,
2013-07-01 12:26:00,73.6,57.4,30.08,East,83,11.0,14.0,57,0.00,,---,0.00,VWS V14.01,2013-07-01 16:26:00,
2013-07-01 12:31:00,73.6,57.4,30.08,East,87,10.0,13.0,57,0.00,,---,0.00,VWS V14.01,2013-07-01 16:31:00,
2013-07-01 12:36:00,73.9,57.2,30.08,ENE,76,10.0,11.0,56,0.00,,---,0.00,VWS V14.01,2013-07-01 16:36:00,
2013-07-01 12:41:00,74.1,56.9,30.08,ENE,67,10.0,13.0,55,0.00,,---,0.00,VWS V14.01,2013-07-01 16:41:00,
2013-07-01 12:46:00,74.1,57.9,30.08,ENE,61,11.0,13.0,57,0.00,,---,0.00,VWS V14.01,2013-07-01 16:46:00,
2013-07-01 12:51:00,74.0,56.3,30.08,East,81,9.0,11.0,54,0.00,,---,0.00,VWS V14.01,2013-07-01 16:51:00,
2013-07-01 12:56:00,74.3,57.6,30.08,ENE,77,13.0,14.0,56,0.00,,---,0.00,VWS V14.01,2013-07-01 16:56:00,
2013-07-01 13:01:00,74.4,57.7,30.08,ENE,75,11.0,12.0,56,0.00,,---,0.00,VWS V14.01,2013-07-01 17:01:00,
2013-07-01 13:06:00,74.6,57.4,30.09,ENE,67,7.0,10.0,55,0.00,,---,0.00,VWS V14.01,2013-07-01 17:06:00,
2013-07-01 13:11:00,74.9,57.7,30.08,NNE,32,7.0,11.0,55,0.00,,---,0.00,VWS V14.01,2013-07-01 17:11:00,
2013-07-01 13:16:00,74.6,57.4,30.09,ENE,68,12.0,16.0,55,0.00,,---,0.00,VWS V14.01,2013-07-01 17:16:00,
2013-07-01 13:21:00,74.9,57.7,30.09,East,80,10.0,12.0,55,0.00,,---,0.00,VWS V14.01,2013-07-01 17:21:00,
2013-07-01 13:26:00,75.2,56.4,30.09,East,80,9.0,11.0,52,0.00,,---,0.00,VWS V14.01,2013-07-01 17:26:00,
2013-07-01 13:31:00,75.3,57.5,30.09,NE,55,10.0,10.0,54,0.00,,---,0.00,VWS V14.01,2013-07-01 17:31:00,
2013-07-01 13:36:00,75.8,57.5,30.09,ENE,76,6.0,10.0,53,0.00,,---,0.00,VWS V14.01,2013-07-01 17:36:00,
2013-07-01 13:41:00,75.6,58.3,30.09,ENE,63,11.0,13.0,55,0.00,,---,0.00,VWS V14.01,2013-07-01 17:41:00,
2013-07-01 13:46:00,75.4,57.1,30.08,ENE,75,3.0,9.0,53,0.00,,---,0.00,VWS V14.01,2013-07-01 17:46:00,
2013-07-01 13:51:00,75.8,56.9,30.08,ENE,69,6.0,8.0,52,0.00,,---,0.00,VWS V14.01,2013-07-01 17:51:00,
2013-07-01 13:56:00,76.1,57.8,30.08,East,86,2.0,11.0,53,0.00,,---,0.00,VWS V14.01,2013-07-01 17:56:00,
2013-07-01 14:01:00,76.4,57.5,30.08,East,84,11.0,16.0,52,0.00,,---,0.00,VWS V14.01,2013-07-01 18:01:00,
2013-07-01 14:06:00,76.1,57.2,30.08,East,94,10.0,14.0,52,0.00,,---,0.00,VWS V14.01,2013-07-01 18:06:00,
2013-07-01 14:12:00,76.2,56.2,30.08,East,90,11.0,14.0,50,0.00,,---,0.00,VWS V14.01,2013-07-01 18:12:00,
2013-07-01 14:16:00,76.1,56.1,30.08,ENE,65,12.0,17.0,50,0.00,,---,0.00,VWS V14.01,2013-07-01 18:16:00,
2013-07-01 14:21:00,75.8,55.9,30.08,East,84,6.0,14.0,50,0.00,,---,0.00,VWS V14.01,2013-07-01 18:21:00,
2013-07-01 14:26:00,75.2,55.8,30.08,ENE,57,12.0,14.0,51,0.00,,---,0.00,VWS V14.01,2013-07-01 18:26:00,
2013-07-01 14:31:00,75.0,55.7,30.08,East,84,11.0,15.0,51,0.00,,---,0.00,VWS V14.01,2013-07-01 18:31:00,
2013-07-01 14:37:00,74.8,56.0,30.08,East,84,13.0,14.0,52,0.00,,---,0.00,VWS V14.01,2013-07-01 18:37:00,
2013-07-01 14:42:00,74.6,56.4,30.09,NE,49,16.0,16.0,53,0.00,,---,0.00,VWS V14.01,2013-07-01 18:42:00,
2013-07-01 14:47:00,74.1,55.9,30.09,NNE,16,15.0,15.0,53,0.00,,---,0.00,VWS V14.01,2013-07-01 18:47:00,
2013-07-01 14:52:00,73.8,55.6,30.09,NE,38,12.0,15.0,53,0.00,,---,0.00,VWS V14.01,2013-07-01 18:52:00,
2013-07-01 14:57:00,73.5,55.9,30.09,North,11,10.0,13.0,54,0.00,,---,0.00,VWS V14.01,2013-07-01 18:57:00,
2013-07-01 15:02:00,73.9,55.7,30.10,NNE,22,10.0,13.0,53,0.00,,---,0.00,VWS V14.01,2013-07-01 19:02:00,
2013-07-01 15:07:00,73.7,56.5,30.10,ENE,59,6.0,12.0,55,0.00,,---,0.00,VWS V14.01,2013-07-01 19:07:00,
2013-07-01 15:12:00,74.1,55.4,30.10,North,355,12.0,14.0,52,0.00,,---,0.00,VWS V14.01,2013-07-01 19:12:00,
2013-07-01 15:17:00,74.8,55.5,30.09,ENE,57,5.0,11.0,51,0.00,,---,0.00,VWS V14.01,2013-07-01 19:17:00,
2013-07-01 15:22:00,74.5,55.2,30.09,ENE,69,10.0,12.0,51,0.00,,---,0.00,VWS V14.01,2013-07-01 19:22:00,
2013-07-01 15:27:00,74.5,55.7,30.09,NNE,22,13.0,13.0,52,0.00,,---,0.00,VWS V14.01,2013-07-01 19:27:00,
2013-07-01 15:32:00,74.5,55.2,30.09,NNE,21,11.0,17.0,51,0.00,,---,0.00,VWS V14.01,2013-07-01 19:32:00,
2013-07-01 15:37:00,74.2,54.4,30.09,ENE,65,9.0,16.0,50,0.00,,---,0.00,VWS V14.01,2013-07-01 19:37:00,
2013-07-01 15:42:00,74.3,54.5,30.09,NNE,21,10.0,14.0,50,0.00,,---,0.00,VWS V14.01,2013-07-01 19:42:00,
2013-07-01 15:47:00,74.3,53.4,30.09,NE,36,12.0,15.0,48,0.00,,---,0.00,VWS V14.01,2013-07-01 19:47:00,
2013-07-01 15:53:00,73.9,54.1,30.09,NE,34,7.0,13.0,50,0.00,,---,0.00,VWS V14.01,2013-07-01 19:53:00,
2013-07-01 15:58:00,74.3,54.5,30.09,NE,42,11.0,15.0,50,0.00,,---,0.00,VWS V14.01,2013-07-01 19:58:00,
2013-07-01 16:03:00,74.3,54.5,30.10,NE,38,10.0,14.0,50,0.00,,---,0.00,VWS V14.01,2013-07-01 20:03:00,
2013-07-01 16:08:00,74.6,53.6,30.09,NE,55,14.0,18.0,48,0.00,,---,0.00,VWS V14.01,2013-07-01 20:08:00,
2013-07-01 16:13:00,74.1,53.2,30.09,NE,52,8.0,13.0,48,0.00,,---,0.00,VWS V14.01,2013-07-01 20:13:00,
2013-07-01 16:18:00,74.2,53.8,30.09,NE,48,12.0,15.0,49,0.00,,---,0.00,VWS V14.01,2013-07-01 20:18:00,
2013-07-01 16:23:00,73.8,52.9,30.09,NNE,28,10.0,16.0,48,0.00,,---,0.00,VWS V14.01,2013-07-01 20:23:00,
2013-07-01 16:28:00,73.4,52.0,30.09,NE,44,6.0,17.0,47,0.00,,---,0.00,VWS V14.01,2013-07-01 20:28:00,
2013-07-01 16:33:00,73.4,52.5,30.09,NE,42,13.0,14.0,48,0.00,,---,0.00,VWS V14.01,2013-07-01 20:33:00,
2013-07-01 16:38:00,73.4,53.7,30.09,North,11,10.0,11.0,50,0.00,,---,0.00,VWS V14.01,2013-07-01 20:38:00,
2013-07-01 16:43:00,73.8,52.9,30.09,NNE,18,13.0,14.0,48,0.00,,---,0.00,VWS V14.01,2013-07-01 20:43:00,
2013-07-01 16:48:00,73.9,53.0,30.09,NNE,18,12.0,12.0,48,0.00,,---,0.00,VWS V14.01,2013-07-01 20:48:00,
2013-07-01 16:53:00,74.6,53.1,30.09,ENE,67,9.0,13.0,47,0.00,,---,0.00,VWS V14.01,2013-07-01 20:53:00,
2013-07-01 16:58:00,74.8,52.1,30.09,NE,56,14.0,14.0,45,0.00,,---,0.00,VWS V14.01,2013-07-01 20:58:00,
2013-07-01 17:03:00,74.5,52.4,30.09,NE,56,11.0,13.0,46,0.00,,---,0.00,VWS V14.01,2013-07-01 21:03:00,
2013-07-01 17:08:00,73.8,51.2,30.10,NE,34,11.0,16.0,45,0.00,,---,0.00,VWS V14.01,2013-07-01 21:08:00,
2013-07-01 17:13:00,73.2,50.6,30.09,NNE,29,12.0,15.0,45,0.00,,---,0.00,VWS V14.01,2013-07-01 21:13:00,
2013-07-01 17:18:00,73.1,49.9,30.09,NNE,32,9.0,13.0,44,0.00,,---,0.00,VWS V14.01,2013-07-01 21:18:00,
2013-07-01 17:23:00,72.8,50.8,30.09,NNE,32,10.0,17.0,46,0.00,,---,0.00,VWS V14.01,2013-07-01 21:23:00,
2013-07-01 17:28:00,72.9,50.3,30.09,ENE,64,7.0,18.0,45,0.00,,---,0.00,VWS V14.01,2013-07-01 21:28:00,
2013-07-01 17:33:00,73.2,50.6,30.10,NNE,23,11.0,14.0,45,0.00,,---,0.00,VWS V14.01,2013-07-01 21:33:00,
2013-07-01 17:38:00,73.1,50.5,30.10,NE,40,9.0,12.0,45,0.00,,---,0.00,VWS V14.01,2013-07-01 21:38:00,
2013-07-01 17:43:00,73.7,51.7,30.10,NE,36,9.0,13.0,46,0.00,,---,0.00,VWS V14.01,2013-07-01 21:43:00,
2013-07-01 17:48:00,73.9,51.2,30.09,NNE,15,11.0,13.0,45,0.00,,---,0.00,VWS V14.01,2013-07-01 21:48:00,
2013-07-01 17:53:00,73.8,50.5,30.09,ENE,63,13.0,15.0,44,0.00,,---,0.00,VWS V14.01,2013-07-01 21:53:00,
2013-07-01 17:58:00,73.3,50.1,30.10,North,11,11.0,15.0,44,0.00,,---,0.00,VWS V14.01,2013-07-01 21:58:00,
2013-07-01 18:03:00,73.1,50.5,30.09,ENE,59,10.0,15.0,45,0.00,,---,0.00,VWS V14.01,2013-07-01 22:03:00,
2013-07-01 18:08:00,73.1,50.5,30.09,NE,37,4.0,17.0,45,0.00,,---,0.00,VWS V14.01,2013-07-01 22:08:00,
2013-07-01 18:13:00,73.1,51.1,30.10,NE,39,10.0,16.0,46,0.00,,---,0.00,VWS V14.01,2013-07-01 22:13:00,
2013-07-01 18:18:00,72.8,50.2,30.10,ENE,63,14.0,15.0,45,0.00,,---,0.00,VWS V14.01,2013-07-01 22:18:00,
2013-07-01 18:23:00,72.6,50.1,30.09,ENE,61,10.0,14.0,45,0.00,,---,0.00,VWS V14.01,2013-07-01 22:23:00,
2013-07-01 18:28:00,72.6,50.7,30.09,NE,56,10.0,13.0,46,0.00,,---,0.00,VWS V14.01,2013-07-01 22:28:00,
2013-07-01 18:33:00,72.5,50.0,30.10,NE,54,11.0,15.0,45,0.00,,---,0.00,VWS V14.01,2013-07-01 22:33:00,
2013-07-01 18:38:00,72.2,49.7,30.10,ENE,64,14.0,15.0,45,0.00,,---,0.00,VWS V14.01,2013-07-01 22:38:00,
2013-07-01 18:43:00,71.8,48.7,30.09,ENE,65,13.0,15.0,44,0.00,,---,0.00,VWS V14.01,2013-07-01 22:43:00,
2013-07-01 18:48:00,71.5,48.5,30.10,ENE,59,14.0,16.0,44,0.00,,---,0.00,VWS V14.01,2013-07-01 22:48:00,
2013-07-01 18:53:00,71.7,48.7,30.10,ENE,70,10.0,13.0,44,0.00,,---,0.00,VWS V14.01,2013-07-01 22:53:00,
2013-07-01 18:58:00,71.6,48.6,30.10,ENE,62,10.0,13.0,44,0.00,,---,0.00,VWS V14.01,2013-07-01 22:58:00,
2013-07-01 19:03:00,71.8,48.1,30.10,ENE,66,9.0,14.0,43,0.00,,---,0.00,VWS V14.01,2013-07-01 23:03:00,
2013-07-01 19:08:00,71.7,47.4,30.10,ENE,75,15.0,15.0,42,0.00,,---,0.00,VWS V14.01,2013-07-01 23:08:00,
2013-07-01 19:13:00,71.6,47.9,30.10,ENE,64,11.0,13.0,43,0.00,,---,0.00,VWS V14.01,2013-07-01 23:13:00,
2013-07-01 19:18:00,71.5,47.8,30.10,ENE,76,8.0,13.0,43,0.00,,---,0.00,VWS V14.01,2013-07-01 23:18:00,
2013-07-01 19:23:00,71.3,48.3,30.10,ENE,63,7.0,13.0,44,0.00,,---,0.00,VWS V14.01,2013-07-01 23:23:00,
2013-07-01 19:28:00,71.3,48.3,30.10,ENE,70,11.0,12.0,44,0.00,,---,0.00,VWS V14.01,2013-07-01 23:28:00,
2013-07-01 19:33:00,71.3,48.3,30.10,ENE,67,12.0,12.0,44,0.00,,---,0.00,VWS V14.01,2013-07-01 23:33:00,
2013-07-01 19:38:00,71.2,48.2,30.10,ENE,71,6.0,13.0,44,0.00,,---,0.00,VWS V14.01,2013-07-01 23:38:00,
2013-07-01 19:43:00,71.0,48.6,30.10,ENE,60,11.0,13.0,45,0.00,,---,0.00,VWS V14.01,2013-07-01 23:43:00,
2013-07-01 19:48:00,70.6,47.7,30.10,NE,49,6.0,13.0,44,0.00,,---,0.00,VWS V14.01,2013-07-01 23:48:00,
2013-07-01 19:53:00,70.4,47.5,30.10,ENE,68,11.0,15.0,44,0.00,,---,0.00,VWS V14.01,2013-07-01 23:53:00,
2013-07-01 19:58:00,70.3,48.0,30.10,ENE,62,12.0,13.0,45,0.00,,---,0.00,VWS V14.01,2013-07-01 23:58:00,
2013-07-01 20:03:00,70.2,47.3,30.10,ENE,60,7.0,14.0,44,0.00,,---,0.00,VWS V14.01,2013-07-02 00:03:00,
2013-07-01 20:08:00,70.1,47.2,30.10,ENE,65,15.0,15.0,44,0.00,,---,0.00,VWS V14.01,2013-07-02 00:08:00,
2013-07-01 20:13:00,69.9,47.0,30.10,ENE,68,11.0,12.0,44,0.00,,---,0.00,VWS V14.01,2013-07-02 00:13:00,
2013-07-01 20:18:00,69.7,46.8,30.10,ENE,74,10.0,13.0,44,0.00,,---,0.00,VWS V14.01,2013-07-02 00:18:00,
2013-07-01 20:23:00,69.5,46.0,30.10,East,84,10.0,14.0,43,0.00,,---,0.00,VWS V14.01,2013-07-02 00:23:00,
2013-07-01 20:28:00,69.0,45.0,30.10,East,83,13.0,18.0,42,0.00,,---,0.00,VWS V14.01,2013-07-02 00:28:00,
2013-07-01 20:33:00,68.8,44.8,30.10,ENE,70,7.0,15.0,42,0.00,,---,0.00,VWS V14.01,2013-07-02 00:33:00,
2013-07-01 20:38:00,68.5,44.5,30.11,ENE,59,7.0,15.0,42,0.00,,---,0.00,VWS V14.01,2013-07-02 00:38:00,
2013-07-01 20:43:00,68.1,45.4,30.11,ENE,72,6.0,7.0,44,0.00,,---,0.00,VWS V14.01,2013-07-02 00:43:00,
2013-07-01 20:48:00,68.0,45.3,30.11,East,82,6.0,9.0,44,0.00,,---,0.00,VWS V14.01,2013-07-02 00:48:00,
2013-07-01 20:53:00,67.8,43.9,30.11,ENE,63,7.0,11.0,42,0.00,,---,0.00,VWS V14.01,2013-07-02 00:53:00,
2013-07-01 20:59:00,67.4,44.2,30.11,ENE,63,7.0,7.0,43,0.00,,---,0.00,VWS V14.01,2013-07-02 00:59:00,
2013-07-01 21:04:00,67.2,44.0,30.10,ENE,71,9.0,11.0,43,0.00,,---,0.00,VWS V14.01,2013-07-02 01:04:00,
2013-07-01 21:09:00,67.2,44.0,30.10,ENE,64,9.0,13.0,43,0.00,,---,0.00,VWS V14.01,2013-07-02 01:09:00,
2013-07-01 21:14:00,66.8,44.8,30.11,ENE,63,7.0,10.0,45,0.00,,---,0.00,VWS V14.01,2013-07-02 01:14:00,
2013-07-01 21:19:00,66.4,45.0,30.10,NE,49,7.0,9.0,46,0.00,,---,0.00,VWS V14.01,2013-07-02 01:19:00,
2013-07-01 21:24:00,66.1,44.7,30.11,ENE,57,6.0,8.0,46,0.00,,---,0.00,VWS V14.01,2013-07-02 01:24:00,
2013-07-01 21:29:00,65.7,44.4,30.11,ENE,67,5.0,9.0,46,0.00,,---,0.00,VWS V14.01,2013-07-02 01:29:00,
2013-07-01 21:34:00,65.8,44.5,30.11,ENE,69,5.0,10.0,46,0.00,,---,0.00,VWS V14.01,2013-07-02 01:34:00,
2013-07-01 21:39:00,65.7,44.4,30.11,ENE,68,4.0,9.0,46,0.00,,---,0.00,VWS V14.01,2013-07-02 01:39:00,
2013-07-01 21:44:00,65.3,44.6,30.11,ENE,64,5.0,7.0,47,0.00,,---,0.00,VWS V14.01,2013-07-02 01:44:00,
2013-07-01 21:49:00,65.3,44.6,30.12,ENE,69,3.0,9.0,47,0.00,,---,0.00,VWS V14.01,2013-07-02 01:49:00,
2013-07-01 21:54:00,64.8,44.7,30.11,ENE,64,4.0,6.0,48,0.00,,---,0.00,VWS V14.01,2013-07-02 01:54:00,
2013-07-01 22:00:00,64.7,45.1,30.11,ENE,64,3.0,7.0,49,0.00,,---,0.00,VWS V14.01,2013-07-02 02:00:00,
2013-07-01 22:05:00,64.5,44.9,30.11,ENE,68,3.0,5.0,49,0.00,,---,0.00,VWS V14.01,2013-07-02 02:05:00,
2013-07-01 22:10:00,64.3,45.3,30.12,ENE,67,4.0,5.0,50,0.00,,---,0.00,VWS V14.01,2013-07-02 02:10:00,
2013-07-01 22:15:00,64.1,45.1,30.12,ENE,65,1.0,3.0,50,0.00,,---,0.00,VWS V14.01,2013-07-02 02:15:00,
2013-07-01 22:20:00,64.0,46.0,30.12,ENE,65,2.0,3.0,52,0.00,,---,0.00,VWS V14.01,2013-07-02 02:20:00,
2013-07-01 22:25:00,63.8,45.9,30.12,ENE,65,1.0,3.0,52,0.00,,---,0.00,VWS V14.01,2013-07-02 02:25:00,
2013-07-01 22:30:00,63.6,46.2,30.12,ENE,65,2.0,3.0,53,0.00,,---,0.00,VWS V14.01,2013-07-02 02:30:00,
2013-07-01 22:35:00,63.5,46.6,30.12,ENE,64,1.0,3.0,54,0.00,,---,0.00,VWS V14.01,2013-07-02 02:35:00,
2013-07-01 22:40:00,63.4,46.5,30.12,ENE,60,0.0,2.0,54,0.00,,---,0.00,VWS V14.01,2013-07-02 02:40:00,
2013-07-01 22:45:00,63.2,46.3,30.12,NE,55,0.0,2.0,54,0.00,,---,0.00,VWS V14.01,2013-07-02 02:45:00,
2013-07-01 22:50:00,63.1,46.2,30.12,NE,55,0.0,2.0,54,0.00,,---,0.00,VWS V14.01,2013-07-02 02:50:00,
2013-07-01 22:55:00,63.1,46.7,30.12,NE,56,1.0,2.0,55,0.00,,---,0.00,VWS V14.01,2013-07-02 02:55:00,
2013-07-01 23:00:00,63.0,46.6,30.12,NE,55,1.0,2.0,55,0.00,,---,0.00,VWS V14.01,2013-07-02 03:00:00,
2013-07-01 23:05:00,62.8,46.4,30.12,NE,55,1.0,2.0,55,0.00,,---,0.00,VWS V14.01,2013-07-02 03:05:00,
2013-07-01 23:10:00,62.6,46.7,30.12,NE,55,1.0,2.0,56,0.00,,---,0.00,VWS V14.01,2013-07-02 03:10:00,
2013-07-01 23:15:00,62.4,46.5,30.12,NE,56,0.0,2.0,56,0.00,,---,0.00,VWS V14.01,2013-07-02 03:15:00,
2013-07-01 23:20:00,62.2,46.3,30.12,NE,56,1.0,2.0,56,0.00,,---,0.00,VWS V14.01,2013-07-02 03:20:00,
2013-07-01 23:25:00,62.0,46.6,30.12,NE,56,1.0,3.0,57,0.00,,---,0.00,VWS V14.01,2013-07-02 03:25:00,
2013-07-01 23:30:00,61.8,46.4,30.12,NE,56,2.0,2.0,57,0.00,,---,0.00,VWS V14.01,2013-07-02 03:30:00,
2013-07-01 23:35:00,61.5,46.6,30.12,NE,55,0.0,2.0,58,0.00,,---,0.00,VWS V14.01,2013-07-02 03:35:00,
2013-07-01 23:40:00,61.2,46.8,30.11,NE,54,2.0,3.0,59,0.00,,---,0.00,VWS V14.01,2013-07-02 03:40:00,
2013-07-01 23:45:00,61.0,46.6,30.11,NE,54,0.0,2.0,59,0.00,,---,0.00,VWS V14.01,2013-07-02 03:45:00,
2013-07-01 23:50:00,60.9,46.5,30.11,NE,53,0.0,2.0,59,0.00,,---,0.00,VWS V14.01,2013-07-02 03:50:00,
2013-07-01 23:55:00,60.8,47.3,30.11,NE,53,0.0,1.0,61,0.00,,---,0.00,VWS V14.01,2013-07-02 03:55:00,